Terminal Aerodrome Forecast
Issued by NWS

Home | Current Version | Previous Version | Text Only | Print | Product List | Glossary On
Versions: 1 2 3 4 5 6 7 8 9 10 11 12 13 14 15 16 17 18 19
000
FTAK31 PAJN 291733
TAFASI
TAF
PASI 291733Z 2918/3018 34008KT P6SM OVC140
     FM292200 31010KT P6SM OVC100
     FM300500 33006KT P6SM BKN110
     FM301500 28005KT P6SM BKN015=

USA.gov is the U.S. government's official web portal to all federal, state and local government web resources and services.